Time;durP1;ratioP1;P1;durP2;ratioP2;P2;SDS_P1;SDS_P2;PMS_P1;PMS_P2;Temp;Humidity;BMP_temperature;BMP_pressure;BME280_temperature;BME280_humidity;BME280_pressure;Samples;Min_cycle;Max_cycle;Signal;HPM_P1;HPM_P2
2022/03/23 00:02:05;;;;;;;33.58;18.52;;;;;;;;;;5007709;28;96752;-76
2022/03/23 00:04:32;;;;;;;36.47;18.77;;;;;;;;;;5014430;28;97142;-75
2022/03/23 00:06:59;;;;;;;36.63;19.77;;;;;;;;;;5014598;28;95846;-75
2022/03/23 00:09:26;;;;;;;38.47;20.08;;;;;;;;;;5014371;28;97099;-75
2022/03/23 00:12:12;;;;;;;39.47;19.70;;;;;;;;;;5020669;28;98805;-75
2022/03/23 00:14:39;;;;;;;48.08;20.77;;;;;;;;;;5009891;28;95358;-76
2022/03/23 00:17:05;;;;;;;41.33;20.42;;;;;;;;;;5010844;28;96796;-75
2022/03/23 00:19:32;;;;;;;37.22;20.23;;;;;;;;;;5022656;28;97604;-75
2022/03/23 00:21:58;;;;;;;36.60;19.60;;;;;;;;;;5018490;28;96804;-74
2022/03/23 00:24:25;;;;;;;40.40;21.52;;;;;;;;;;5000966;28;97313;-75
2022/03/23 00:26:51;;;;;;;38.13;20.05;;;;;;;;;;4998664;28;95795;-75
2022/03/23 00:29:17;;;;;;;46.22;21.05;;;;;;;;;;5007076;28;96486;-74
2022/03/23 00:31:44;;;;;;;47.58;21.70;;;;;;;;;;4997148;28;97174;-74
2022/03/23 00:34:10;;;;;;;46.58;19.52;;;;;;;;;;5005009;28;95740;-74
2022/03/23 00:36:37;;;;;;;41.25;20.75;;;;;;;;;;4991403;28;96474;-74
2022/03/23 00:39:03;;;;;;;38.38;20.45;;;;;;;;;;4999127;28;97615;-73
2022/03/23 00:41:30;;;;;;;44.50;20.77;;;;;;;;;;4998230;28;95360;-75
2022/03/23 00:43:56;;;;;;;41.72;20.67;;;;;;;;;;5004586;28;100425;-75
2022/03/23 00:46:24;;;;;;;38.80;20.33;;;;;;;;;;4989918;28;95356;-74
2022/03/23 00:48:50;;;;;;;40.72;20.85;;;;;;;;;;5001919;28;96735;-74
2022/03/23 00:51:17;;;;;;;43.92;21.50;;;;;;;;;;4995246;28;97268;-74
2022/03/23 00:53:44;;;;;;;45.03;21.15;;;;;;;;;;4996388;28;96669;-74
2022/03/23 00:56:11;;;;;;;39.30;19.17;;;;;;;;;;4996924;28;97337;-74
2022/03/23 00:58:38;;;;;;;40.85;20.08;;;;;;;;;;5002995;28;97388;-74
2022/03/23 01:01:04;;;;;;;34.03;18.95;;;;;;;;;;4994430;28;95836;-74
2022/03/23 01:03:31;;;;;;;42.50;20.50;;;;;;;;;;4998225;28;96904;-74
2022/03/23 01:05:57;;;;;;;37.05;20.10;;;;;;;;;;5002440;28;95371;-74
2022/03/23 01:08:24;;;;;;;42.13;19.75;;;;;;;;;;4994706;28;98609;-76
2022/03/23 01:10:51;;;;;;;37.33;20.05;;;;;;;;;;4998396;28;97374;-75
2022/03/23 01:13:18;;;;;;;39.30;21.67;;;;;;;;;;4995672;28;96976;-75
2022/03/23 01:15:44;;;;;;;42.47;20.30;;;;;;;;;;4992945;28;96734;-74
2022/03/23 01:18:11;;;;;;;45.22;21.77;;;;;;;;;;5004808;28;97003;-74
2022/03/23 01:20:37;;;;;;;41.28;20.73;;;;;;;;;;5003737;28;95976;-74
2022/03/23 01:23:04;;;;;;;35.97;19.73;;;;;;;;;;4990630;28;97021;-74
2022/03/23 01:25:30;;;;;;;36.45;20.27;;;;;;;;;;4998884;28;96030;-74
2022/03/23 01:27:57;;;;;;;45.67;21.60;;;;;;;;;;4999492;28;97451;-74
2022/03/23 01:30:23;;;;;;;42.47;20.70;;;;;;;;;;4999571;28;97473;-76
2022/03/23 01:32:50;;;;;;;42.83;21.50;;;;;;;;;;4995052;28;95342;-75
2022/03/23 01:35:16;;;;;;;40.63;21.58;;;;;;;;;;4988931;28;97118;-79
2022/03/23 01:37:43;;;;;;;43.25;20.00;;;;;;;;;;4993920;28;97657;-76
2022/03/23 01:40:11;;;;;;;48.80;22.30;;;;;;;;;;4985024;28;95441;-76
2022/03/23 01:42:38;;;;;;;43.92;22.10;;;;;;;;;;4976540;28;96801;-76
2022/03/23 01:45:06;;;;;;;46.30;23.80;;;;;;;;;;4987490;28;97744;-75
2022/03/23 01:47:32;;;;;;;51.78;22.48;;;;;;;;;;4983623;28;97173;-75
2022/03/23 01:49:58;;;;;;;44.22;21.83;;;;;;;;;;4987336;28;97661;-74
2022/03/23 01:52:26;;;;;;;49.65;23.23;;;;;;;;;;4997225;28;95413;-75
2022/03/23 01:54:52;;;;;;;50.35;22.45;;;;;;;;;;5001173;28;96829;-76
2022/03/23 01:57:20;;;;;;;39.28;21.30;;;;;;;;;;4993547;28;97913;-73
2022/03/23 01:59:47;;;;;;;44.33;21.58;;;;;;;;;;5005280;28;95364;-76
2022/03/23 02:02:13;;;;;;;44.05;21.40;;;;;;;;;;4995825;28;96757;-74
2022/03/23 02:04:40;;;;;;;46.33;21.13;;;;;;;;;;5003996;28;97332;-76
2022/03/23 02:07:06;;;;;;;41.75;21.52;;;;;;;;;;5006460;28;95318;-76
2022/03/23 02:09:33;;;;;;;38.95;21.15;;;;;;;;;;4993232;28;97865;-77
2022/03/23 02:12:02;;;;;;;44.25;22.95;;;;;;;;;;4982926;28;95659;-78
2022/03/23 02:14:29;;;;;;;41.47;21.00;;;;;;;;;;4999087;28;100084;-78
2022/03/23 02:16:55;;;;;;;45.13;23.05;;;;;;;;;;5000758;28;97782;-77
2022/03/23 02:19:22;;;;;;;47.45;21.25;;;;;;;;;;4994016;28;95429;-77
2022/03/23 02:21:54;;;;;;;42.03;21.33;;;;;;;;;;4988688;28;96683;-76
2022/03/23 02:24:25;;;;;;;47.72;22.60;;;;;;;;;;4999984;28;97634;-76
2022/03/23 02:26:52;;;;;;;42.20;21.13;;;;;;;;;;4994028;28;97124;-76
2022/03/23 02:29:19;;;;;;;44.25;22.20;;;;;;;;;;5000981;28;96802;-74
2022/03/23 02:31:46;;;;;;;41.05;19.92;;;;;;;;;;4990346;28;95634;-77
2022/03/23 02:34:12;;;;;;;37.25;21.10;;;;;;;;;;5003597;28;97358;-76
2022/03/23 02:36:39;;;;;;;48.15;22.52;;;;;;;;;;4994752;28;97546;-75
2022/03/23 02:39:05;;;;;;;45.10;22.55;;;;;;;;;;4998202;28;95334;-75
2022/03/23 02:41:31;;;;;;;42.88;21.67;;;;;;;;;;4989803;28;96845;-76
2022/03/23 02:43:59;;;;;;;45.00;22.83;;;;;;;;;;5001870;28;97338;-74
2022/03/23 02:46:28;;;;;;;42.85;21.08;;;;;;;;;;4991596;28;95621;-77
2022/03/23 02:48:55;;;;;;;41.72;21.45;;;;;;;;;;5003590;28;97007;-76
2022/03/23 02:51:21;;;;;;;48.25;23.58;;;;;;;;;;5005586;28;97254;-74
2022/03/23 03:02:19;;;;;;;40.35;21.30;;;;;;;;;;4993145;28;97519;-76
2022/03/23 03:04:46;;;;;;;48.92;21.63;;;;;;;;;;4997689;28;98141;-75
2022/03/23 03:07:13;;;;;;;42.17;21.42;;;;;;;;;;5000188;28;95752;-73
2022/03/23 03:09:39;;;;;;;44.75;23.02;;;;;;;;;;5002956;28;97050;-73
2022/03/23 03:12:07;;;;;;;46.08;21.77;;;;;;;;;;4992971;28;97506;-75
2022/03/23 03:14:34;;;;;;;41.17;21.77;;;;;;;;;;4993284;28;95893;-75
2022/03/23 03:17:01;;;;;;;45.72;21.60;;;;;;;;;;5003278;28;97424;-77
2022/03/23 03:19:27;;;;;;;46.75;24.05;;;;;;;;;;4996380;28;95791;-79
2022/03/23 03:21:54;;;;;;;51.28;22.95;;;;;;;;;;5004210;28;96737;-76
2022/03/23 03:24:20;;;;;;;43.22;23.58;;;;;;;;;;4986255;28;97404;-78
2022/03/23 03:26:47;;;;;;;46.95;22.80;;;;;;;;;;4996553;28;96359;-75
2022/03/23 03:29:16;;;;;;;55.80;24.13;;;;;;;;;;4994005;28;97076;-74
2022/03/23 03:31:42;;;;;;;49.35;22.95;;;;;;;;;;4993235;28;97320;-76
2022/03/23 03:34:09;;;;;;;46.25;23.05;;;;;;;;;;5010798;28;95401;-76
2022/03/23 03:36:36;;;;;;;44.80;22.40;;;;;;;;;;5008150;28;96932;-76
2022/03/23 03:39:03;;;;;;;41.58;21.40;;;;;;;;;;4994314;28;95565;-74
2022/03/23 03:41:31;;;;;;;53.67;22.23;;;;;;;;;;4995342;28;96826;-75
2022/03/23 03:43:57;;;;;;;47.58;22.92;;;;;;;;;;4988508;28;97460;-75
2022/03/23 03:46:24;;;;;;;43.53;22.45;;;;;;;;;;5000112;28;95208;-76
2022/03/23 03:48:50;;;;;;;43.90;22.23;;;;;;;;;;4992861;28;96749;-76
2022/03/23 03:51:17;;;;;;;44.95;23.60;;;;;;;;;;5002836;28;97441;-77
2022/03/23 03:53:43;;;;;;;46.85;23.48;;;;;;;;;;4993418;28;95446;-77
2022/03/23 03:56:10;;;;;;;50.05;25.17;;;;;;;;;;5004594;28;97136;-76
2022/03/23 03:58:36;;;;;;;46.83;24.25;;;;;;;;;;4994489;28;95736;-78
2022/03/23 04:01:03;;;;;;;48.20;23.67;;;;;;;;;;4993867;28;97381;-73
2022/03/23 04:03:30;;;;;;;51.05;24.48;;;;;;;;;;5004654;28;97299;-75
2022/03/23 04:05:57;;;;;;;47.83;23.95;;;;;;;;;;5006982;28;95434;-77
2022/03/23 04:08:23;;;;;;;47.67;22.80;;;;;;;;;;4995727;28;96647;-77
2022/03/23 04:10:50;;;;;;;51.13;23.60;;;;;;;;;;5004059;28;97357;-76
2022/03/23 04:13:17;;;;;;;53.50;25.48;;;;;;;;;;5003113;28;95418;-75
2022/03/23 04:15:44;;;;;;;48.35;23.75;;;;;;;;;;4997679;28;96782;-77
2022/03/23 04:18:11;;;;;;;48.78;24.00;;;;;;;;;;5003135;28;97364;-78
2022/03/23 04:20:37;;;;;;;52.22;23.45;;;;;;;;;;5000410;28;97023;-77
2022/03/23 04:23:03;;;;;;;47.63;23.88;;;;;;;;;;4999095;28;97224;-77
2022/03/23 04:25:30;;;;;;;53.63;24.33;;;;;;;;;;5005534;28;95464;-76
2022/03/23 04:27:58;;;;;;;50.10;24.55;;;;;;;;;;4995558;28;97059;-77
2022/03/23 04:30:27;;;;;;;55.58;24.48;;;;;;;;;;5002336;28;97596;-76
2022/03/23 04:32:53;;;;;;;44.70;22.73;;;;;;;;;;5002279;28;95314;-77
2022/03/23 04:35:22;;;;;;;44.58;22.65;;;;;;;;;;4993027;28;96845;-78
2022/03/23 04:37:49;;;;;;;47.03;23.70;;;;;;;;;;5005335;28;97353;-77
2022/03/23 04:40:16;;;;;;;51.00;24.00;;;;;;;;;;5002769;28;95366;-75
2022/03/23 04:42:44;;;;;;;50.75;23.35;;;;;;;;;;4983182;28;97605;-78
2022/03/23 04:45:11;;;;;;;46.78;23.77;;;;;;;;;;4985030;28;95773;-75
2022/03/23 04:47:38;;;;;;;48.50;24.48;;;;;;;;;;4985733;28;97132;-78
2022/03/23 04:50:06;;;;;;;52.25;24.08;;;;;;;;;;4984787;28;97364;-77
2022/03/23 04:52:33;;;;;;;50.50;24.80;;;;;;;;;;4985971;28;95474;-77
2022/03/23 04:54:59;;;;;;;51.97;24.98;;;;;;;;;;4984405;28;95731;-75
2022/03/23 04:57:27;;;;;;;48.85;23.15;;;;;;;;;;4976750;28;97282;-73
2022/03/23 04:59:58;;;;;;;53.13;23.30;;;;;;;;;;5001984;28;96380;-76
2022/03/23 18:18:33;;;;;;;29.63;11.05;;;;;;;;;;5056852;27;1279909;-78
2022/03/23 18:21:01;;;;;;;34.22;11.57;;;;;;;;;;5064987;27;96159;-75
2022/03/23 18:23:31;;;;;;;26.33;12.80;;;;;;;;;;5076263;27;95887;-75
2022/03/23 18:25:58;;;;;;;37.30;13.85;;;;;;;;;;5068224;27;97042;-78
2022/03/23 18:28:25;;;;;;;37.75;13.77;;;;;;;;;;5072186;27;98051;-78
2022/03/23 18:30:52;;;;;;;35.03;13.75;;;;;;;;;;5069758;27;95314;-78
2022/03/23 18:33:40;;;;;;;30.45;12.52;;;;;;;;;;5076105;27;98724;-78
2022/03/23 18:36:13;;;;;;;35.50;13.75;;;;;;;;;;5071145;27;100263;-77
2022/03/23 18:38:45;;;;;;;43.05;14.05;;;;;;;;;;5084116;27;95661;-76
2022/03/23 18:41:15;;;;;;;43.85;15.43;;;;;;;;;;5073627;27;97627;-77
2022/03/23 18:43:43;;;;;;;34.17;16.38;;;;;;;;;;5072626;27;95715;-77
2022/03/23 18:46:10;;;;;;;35.03;15.98;;;;;;;;;;5079612;27;96811;-77
2022/03/23 18:48:38;;;;;;;39.95;16.75;;;;;;;;;;5077226;27;97577;-76
2022/03/23 18:51:04;;;;;;;51.25;16.27;;;;;;;;;;5067984;27;95792;-79
2022/03/23 18:53:31;;;;;;;34.45;16.00;;;;;;;;;;5077289;27;96694;-77
2022/03/23 18:55:57;;;;;;;47.70;17.33;;;;;;;;;;5074000;27;97736;-77
2022/03/23 18:58:24;;;;;;;42.90;16.17;;;;;;;;;;5067150;27;95828;-78
2022/03/23 19:00:51;;;;;;;37.20;14.70;;;;;;;;;;5072685;27;96755;-76
2022/03/23 19:03:18;;;;;;;30.30;14.82;;;;;;;;;;5075842;27;95403;-78
2022/03/23 19:05:44;;;;;;;33.80;14.27;;;;;;;;;;5056850;27;96841;-78
2022/03/23 19:08:11;;;;;;;29.48;13.73;;;;;;;;;;5072360;27;97319;-77
2022/03/23 19:10:38;;;;;;;35.85;14.07;;;;;;;;;;5077436;27;96648;-77
2022/03/23 19:13:04;;;;;;;29.65;13.43;;;;;;;;;;5078188;27;96394;-78
2022/03/23 19:15:30;;;;;;;29.65;13.57;;;;;;;;;;5081459;27;95976;-78
2022/03/23 19:17:57;;;;;;;42.83;14.45;;;;;;;;;;5076881;27;95367;-78
2022/03/23 19:20:28;;;;;;;36.67;14.52;;;;;;;;;;5072246;27;95966;-78
2022/03/23 19:22:55;;;;;;;32.42;14.50;;;;;;;;;;5082517;27;96836;-78
2022/03/23 19:25:21;;;;;;;36.03;15.40;;;;;;;;;;5067687;27;97203;-78
2022/03/23 19:27:48;;;;;;;33.15;14.80;;;;;;;;;;5078409;27;97414;-77
2022/03/23 19:30:16;;;;;;;34.10;14.65;;;;;;;;;;5052785;27;95766;-75
2022/03/23 19:32:42;;;;;;;32.60;13.35;;;;;;;;;;5061895;27;95925;-77
2022/03/23 19:35:09;;;;;;;37.85;12.75;;;;;;;;;;5055028;27;97790;-78
2022/03/23 19:37:35;;;;;;;26.52;12.38;;;;;;;;;;5053679;27;96919;-78
2022/03/23 19:40:03;;;;;;;27.98;12.55;;;;;;;;;;5063872;27;96633;-78
2022/03/23 19:42:29;;;;;;;37.75;12.88;;;;;;;;;;5064481;27;97686;-78
2022/03/23 19:44:55;;;;;;;51.22;14.75;;;;;;;;;;5056332;27;95636;-77
2022/03/23 19:47:22;;;;;;;28.00;13.38;;;;;;;;;;5051708;27;97716;-77
2022/03/23 19:49:49;;;;;;;37.40;14.25;;;;;;;;;;5056199;27;95233;-80
2022/03/23 19:52:16;;;;;;;29.77;13.05;;;;;;;;;;5053341;27;96717;-78
2022/03/23 19:54:42;;;;;;;35.35;14.35;;;;;;;;;;5058548;27;97761;-76
2022/03/23 19:57:09;;;;;;;38.30;14.30;;;;;;;;;;5057947;27;95355;-77
2022/03/23 19:59:35;;;;;;;34.00;14.68;;;;;;;;;;5065643;27;96854;-77
2022/03/23 20:02:05;;;;;;;41.25;15.32;;;;;;;;;;5052816;27;97236;-77
2022/03/23 20:04:33;;;;;;;46.05;14.07;;;;;;;;;;5062232;27;97333;-77
2022/03/23 20:07:00;;;;;;;44.28;15.05;;;;;;;;;;5064923;27;97083;-77
2022/03/23 20:09:26;;;;;;;37.65;13.77;;;;;;;;;;5057435;27;95318;-77
2022/03/23 20:11:54;;;;;;;41.63;15.20;;;;;;;;;;5063418;27;97439;-76
2022/03/23 20:14:21;;;;;;;38.03;13.20;;;;;;;;;;5053285;27;97257;-76
2022/03/23 20:16:47;;;;;;;36.83;13.32;;;;;;;;;;5063292;27;95759;-78
2022/03/23 20:19:14;;;;;;;34.05;12.32;;;;;;;;;;5053718;27;96935;-77
2022/03/23 20:21:40;;;;;;;27.85;11.32;;;;;;;;;;5059501;27;97323;-77
2022/03/23 20:24:07;;;;;;;30.33;11.13;;;;;;;;;;5058784;27;96023;-78
2022/03/23 20:26:34;;;;;;;32.75;11.27;;;;;;;;;;5062491;27;96878;-77
2022/03/23 20:29:00;;;;;;;30.25;11.02;;;;;;;;;;5068005;27;95532;-77
2022/03/23 20:31:27;;;;;;;35.30;11.02;;;;;;;;;;5062328;27;97050;-77
2022/03/23 20:33:54;;;;;;;28.15;11.40;;;;;;;;;;5062328;27;97300;-76
2022/03/23 20:36:21;;;;;;;28.55;11.65;;;;;;;;;;5060109;27;96627;-76
2022/03/23 20:38:47;;;;;;;50.47;11.73;;;;;;;;;;5060931;27;96115;-76
2022/03/23 20:41:14;;;;;;;23.20;10.38;;;;;;;;;;5050572;27;97343;-76
2022/03/23 20:43:41;;;;;;;46.25;12.25;;;;;;;;;;5050926;27;95891;-76
2022/03/23 20:46:11;;;;;;;26.80;11.48;;;;;;;;;;5057364;27;96761;-76
2022/03/23 20:48:39;;;;;;;29.13;11.13;;;;;;;;;;5058979;27;97856;-76
2022/03/23 20:51:08;;;;;;;34.17;12.05;;;;;;;;;;5059709;27;97289;-78
2022/03/23 20:53:34;;;;;;;33.20;11.73;;;;;;;;;;5060211;27;97459;-77
2022/03/23 20:56:01;;;;;;;31.60;11.23;;;;;;;;;;5049471;27;95449;-78
2022/03/23 20:58:27;;;;;;;25.42;11.35;;;;;;;;;;5064858;27;95578;-78
2022/03/23 21:00:57;;;;;;;53.55;12.50;;;;;;;;;;5056807;27;98147;-77
2022/03/23 21:03:24;;;;;;;26.35;11.20;;;;;;;;;;5059913;27;95414;-77
2022/03/23 21:05:54;;;;;;;32.60;12.02;;;;;;;;;;5062644;27;96185;-77
2022/03/23 21:08:22;;;;;;;37.53;11.35;;;;;;;;;;5055743;27;97562;-76
2022/03/23 21:10:50;;;;;;;27.77;11.82;;;;;;;;;;5058781;27;95245;-78
2022/03/23 21:13:17;;;;;;;28.58;11.02;;;;;;;;;;5059228;27;97509;-78
2022/03/23 21:15:44;;;;;;;31.63;11.23;;;;;;;;;;5052433;27;95842;-77
2022/03/23 21:18:12;;;;;;;34.75;10.85;;;;;;;;;;5061166;27;96649;-76
2022/03/23 21:20:39;;;;;;;28.67;11.45;;;;;;;;;;5054455;27;96626;-77
2022/03/23 21:23:05;;;;;;;38.47;11.73;;;;;;;;;;5064345;27;95852;-76
2022/03/23 21:25:32;;;;;;;27.33;12.00;;;;;;;;;;5055166;27;96293;-76
2022/03/23 21:27:58;;;;;;;35.00;12.40;;;;;;;;;;5054636;27;96898;-78
2022/03/23 21:30:25;;;;;;;35.83;11.68;;;;;;;;;;5064548;27;95787;-77
2022/03/23 21:32:51;;;;;;;35.47;11.13;;;;;;;;;;5059942;27;96904;-77
2022/03/23 21:35:21;;;;;;;28.58;11.80;;;;;;;;;;5065466;27;95773;-77
2022/03/23 21:37:47;;;;;;;29.02;11.85;;;;;;;;;;5055979;27;95670;-77
2022/03/23 21:40:14;;;;;;;30.92;13.18;;;;;;;;;;5053851;27;97422;-76
2022/03/23 21:42:43;;;;;;;41.22;13.15;;;;;;;;;;5064249;27;95541;-76
2022/03/23 21:45:11;;;;;;;44.30;13.50;;;;;;;;;;5056876;27;96570;-77
2022/03/23 21:47:38;;;;;;;45.53;14.13;;;;;;;;;;5062575;27;97235;-77
2022/03/23 21:50:05;;;;;;;29.35;14.70;;;;;;;;;;5053550;27;95635;-77
2022/03/23 21:52:32;;;;;;;32.17;14.57;;;;;;;;;;5053601;27;97188;-78
2022/03/23 21:54:59;;;;;;;37.28;15.55;;;;;;;;;;5056112;27;98131;-78
2022/03/23 21:57:26;;;;;;;34.67;15.38;;;;;;;;;;5060879;27;95826;-78
2022/03/23 21:59:53;;;;;;;45.60;15.05;;;;;;;;;;5060893;27;96261;-77
2022/03/23 22:02:19;;;;;;;37.67;15.43;;;;;;;;;;5063188;27;95652;-77
2022/03/23 22:04:45;;;;;;;46.78;15.20;;;;;;;;;;5056051;27;96849;-78
2022/03/23 22:07:13;;;;;;;42.63;14.90;;;;;;;;;;5066938;27;97113;-77
2022/03/23 22:09:39;;;;;;;31.92;15.43;;;;;;;;;;5062953;27;95851;-77
2022/03/23 22:12:06;;;;;;;34.75;14.98;;;;;;;;;;5057236;27;97288;-77
2022/03/23 22:14:32;;;;;;;35.08;14.93;;;;;;;;;;5052978;27;97987;-77
2022/03/23 22:16:59;;;;;;;33.38;15.07;;;;;;;;;;5063213;27;96585;-77
2022/03/23 22:19:25;;;;;;;35.50;14.23;;;;;;;;;;5052645;27;97311;-77
2022/03/23 22:21:51;;;;;;;36.33;15.38;;;;;;;;;;5054264;27;95399;-77
2022/03/23 22:24:18;;;;;;;36.78;15.60;;;;;;;;;;5062984;27;95964;-77
2022/03/23 22:26:45;;;;;;;32.90;15.07;;;;;;;;;;5053612;27;96250;-76
2022/03/23 22:29:11;;;;;;;31.50;14.77;;;;;;;;;;5058670;27;95911;-78
2022/03/23 22:31:37;;;;;;;34.40;15.77;;;;;;;;;;5056465;27;96848;-77
2022/03/23 22:34:04;;;;;;;30.50;15.07;;;;;;;;;;5065608;27;97761;-78
2022/03/23 22:36:30;;;;;;;38.83;15.20;;;;;;;;;;5056301;27;95781;-77
2022/03/23 22:38:56;;;;;;;33.75;15.27;;;;;;;;;;5061923;27;96634;-78
2022/03/23 22:41:23;;;;;;;41.75;15.40;;;;;;;;;;5062561;27;95411;-78
2022/03/23 22:43:49;;;;;;;35.97;15.10;;;;;;;;;;5055323;27;96753;-78
2022/03/23 22:46:16;;;;;;;47.55;14.93;;;;;;;;;;5063068;27;97550;-78
2022/03/23 22:48:44;;;;;;;31.30;15.52;;;;;;;;;;5053408;27;95793;-76
2022/03/23 22:51:13;;;;;;;38.47;16.85;;;;;;;;;;5055714;27;96780;-77
2022/03/23 22:53:39;;;;;;;46.63;15.60;;;;;;;;;;5060449;27;97351;-77
2022/03/23 22:56:06;;;;;;;30.45;14.32;;;;;;;;;;5061766;27;95890;-77
2022/03/23 22:58:32;;;;;;;41.45;15.55;;;;;;;;;;5056296;27;95938;-78
2022/03/23 23:01:10;;;;;;;33.92;15.52;;;;;;;;;;5059857;27;95339;-77
2022/03/23 23:03:38;;;;;;;38.33;15.88;;;;;;;;;;5051569;27;96675;-76
2022/03/23 23:06:05;;;;;;;35.60;17.30;;;;;;;;;;5067367;27;97433;-75
2022/03/23 23:08:31;;;;;;;36.08;15.93;;;;;;;;;;5057417;27;95597;-76
2022/03/23 23:10:57;;;;;;;36.03;14.90;;;;;;;;;;5067224;27;96775;-75
2022/03/23 23:13:24;;;;;;;32.55;14.00;;;;;;;;;;5061941;27;97554;-77
2022/03/23 23:15:50;;;;;;;35.85;14.13;;;;;;;;;;5065627;27;95294;-76
2022/03/23 23:18:16;;;;;;;36.45;14.50;;;;;;;;;;5066493;27;96957;-77
2022/03/23 23:20:43;;;;;;;30.85;13.32;;;;;;;;;;5069285;27;97247;-77
2022/03/23 23:23:09;;;;;;;33.00;13.90;;;;;;;;;;5055039;27;97372;-76
2022/03/23 23:25:36;;;;;;;33.70;13.73;;;;;;;;;;5063977;27;97195;-77
2022/03/23 23:28:04;;;;;;;35.45;13.45;;;;;;;;;;5066171;27;95803;-77
2022/03/23 23:30:30;;;;;;;35.10;13.52;;;;;;;;;;5064599;27;97158;-76
2022/03/23 23:32:56;;;;;;;36.60;14.10;;;;;;;;;;5055442;27;97302;-77
2022/03/23 23:35:23;;;;;;;37.60;14.70;;;;;;;;;;5061605;27;95393;-77
2022/03/23 23:37:49;;;;;;;43.33;15.57;;;;;;;;;;5059234;27;96583;-78
2022/03/23 23:40:16;;;;;;;43.30;15.70;;;;;;;;;;5065067;27;97663;-78
2022/03/23 23:42:45;;;;;;;34.80;13.98;;;;;;;;;;5058569;27;95219;-78
2022/03/23 23:45:14;;;;;;;41.50;14.77;;;;;;;;;;5058922;27;97283;-78
2022/03/23 23:47:40;;;;;;;50.65;15.80;;;;;;;;;;5066707;27;95818;-78
2022/03/23 23:50:08;;;;;;;42.33;15.38;;;;;;;;;;5055636;27;96842;-77
2022/03/23 23:52:34;;;;;;;42.28;15.10;;;;;;;;;;5055247;27;96411;-78
2022/03/23 23:55:01;;;;;;;46.47;15.98;;;;;;;;;;5057421;27;95385;-76
2022/03/23 23:57:27;;;;;;;37.28;15.35;;;;;;;;;;5059331;27;96716;-77
2022/03/23 23:59:53;;;;;;;36.05;14.75;;;;;;;;;;5063517;27;97332;-77
